Wetterdaten: Woche 30.05.16 - 05.06.16 (KW22)
Datum Zeit Temp. A. Feuchte A. Luftdruck Regen Wind Richtung Taupunkt Windchill Windben
30.05.2016 00:00 12,9 C 97 % 1004,8 hPa 3,3 l/m 2,8 km/h (1 Bft) O 12,3 C 12,9 C 5,9 km/h (2 Bft)
30.05.2016 01:00 12,8 C 96 % 1004,3 hPa 2,0 l/m 3,7 km/h (1 Bft) O 12,2 C 12,8 C 9,1 km/h (2 Bft)
30.05.2016 02:00 12,5 C 96 % 1004,0 hPa 2,0 l/m 3,8 km/h (1 Bft) O-NO 11,9 C 12,5 C 9,1 km/h (2 Bft)
30.05.2016 03:00 12,4 C 96 % 1003,9 hPa 1,8 l/m 4,3 km/h (1 Bft) O 11,8 C 12,4 C 9,9 km/h (2 Bft)
30.05.2016 04:00 12,3 C 96 % 1003,8 hPa 1,8 l/m 5,8 km/h (2 Bft) O 11,7 C 12,2 C 14,1 km/h (3 Bft)
30.05.2016 05:00 12,1 C 96 % 1003,8 hPa 2,0 l/m 6,3 km/h (2 Bft) O-NO 11,5 C 11,8 C 14,8 km/h (3 Bft)
30.05.2016 06:00 12,1 C 96 % 1003,8 hPa 1,0 l/m 6,0 km/h (2 Bft) O-NO 11,4 C 11,8 C 14,1 km/h (3 Bft)
30.05.2016 07:00 11,9 C 96 % 1003,8 hPa 1,0 l/m 6,0 km/h (2 Bft) O-NO 11,3 C 11,8 C 15,2 km/h (3 Bft)
30.05.2016 08:00 12,1 C 95 % 1003,8 hPa 0,8 l/m 6,5 km/h (2 Bft) O-NO 11,3 C 11,6 C 15,4 km/h (3 Bft)
30.05.2016 09:00 12,2 C 95 % 1003,9 hPa 0,5 l/m 6,5 km/h (2 Bft) O-NO 11,5 C 12,0 C 13,7 km/h (3 Bft)
30.05.2016 10:00 12,7 C 94 % 1004,1 hPa 0,0 l/m 6,4 km/h (2 Bft) O-NO 11,8 C 12,4 C 15,4 km/h (3 Bft)
30.05.2016 11:00 13,0 C 93 % 1004,5 hPa 0,0 l/m 6,8 km/h (2 Bft) N-NO 11,9 C 12,6 C 15,0 km/h (3 Bft)
30.05.2016 12:00 13,4 C 91 % 1004,7 hPa 0,0 l/m 8,0 km/h (2 Bft) O-NO 12,1 C 12,5 C 16,0 km/h (3 Bft)
30.05.2016 13:00 13,9 C 89 % 1005,1 hPa 0,0 l/m 6,2 km/h (2 Bft) O 12,1 C 13,7 C 14,9 km/h (3 Bft)
30.05.2016 14:00 13,7 C 88 % 1005,3 hPa 0,0 l/m 6,0 km/h (2 Bft) O-NO 11,8 C 13,6 C 13,1 km/h (3 Bft)
30.05.2016 15:00 14,0 C 88 % 1005,6 hPa 0,0 l/m 5,0 km/h (1 Bft) NO 12,0 C 14,0 C 11,8 km/h (2 Bft)
30.05.2016 16:00 14,0 C 87 % 1005,8 hPa 0,3 l/m 6,6 km/h (2 Bft) NO 11,8 C 13,7 C 16,6 km/h (3 Bft)
30.05.2016 17:00 14,1 C 84 % 1005,8 hPa 0,0 l/m 5,9 km/h (2 Bft) O-NO 11,5 C 13,9 C 13,4 km/h (3 Bft)
30.05.2016 18:00 13,8 C 84 % 1006,0 hPa 0,0 l/m 5,5 km/h (2 Bft) O-NO 11,1 C 13,7 C 12,3 km/h (2 Bft)
30.05.2016 19:00 13,5 C 83 % 1006,4 hPa 0,0 l/m 7,0 km/h (2 Bft) NO 10,7 C 12,9 C 19,0 km/h (3 Bft)
30.05.2016 20:00 12,8 C 84 % 1007,0 hPa 0,0 l/m 7,1 km/h (2 Bft) O-NO 10,1 C 12,0 C 18,2 km/h (3 Bft)
30.05.2016 21:00 12,3 C 86 % 1007,3 hPa 0,0 l/m 5,3 km/h (1 Bft) NO 10,0 C 12,1 C 11,2 km/h (2 Bft)
30.05.2016 22:00 12,0 C 87 % 1007,7 hPa 0,0 l/m 2,5 km/h (1 Bft) O 9,8 C 12,0 C 5,7 km/h (2 Bft)
30.05.2016 23:00 11,2 C 88 % 1007,7 hPa 0,0 l/m 2,1 km/h (1 Bft) O 9,3 C 11,2 C 5,5 km/h (2 Bft)
31.05.2016 00:00 10,6 C 89 % 1007,7 hPa 0,0 l/m 0,4 km/h (0 Bft) O-NO 8,8 C 10,6 C 1,3 km/h (1 Bft)
31.05.2016 01:00 8,8 C 94 % 1007,6 hPa 0,0 l/m 0,1 km/h (0 Bft) N 7,8 C 8,8 C 0,3 km/h (0 Bft)
31.05.2016 02:00 8,1 C 95 % 1007,7 hPa 0,0 l/m 0,0 km/h (0 Bft) N 7,4 C 8,1 C 0,6 km/h (0 Bft)
31.05.2016 03:00 8,4 C 96 % 1007,8 hPa 0,0 l/m 1,0 km/h (0 Bft) O-NO 7,8 C 8,4 C 2,4 km/h (1 Bft)
31.05.2016 04:00 9,3 C 94 % 1008,0 hPa 0,0 l/m 2,0 km/h (1 Bft) O-NO 8,3 C 9,3 C 4,0 km/h (1 Bft)
31.05.2016 05:00 9,9 C 94 % 1008,4 hPa 0,0 l/m 1,1 km/h (1 Bft) O-SO 9,0 C 9,9 C 2,4 km/h (1 Bft)
31.05.2016 06:00 10,4 C 94 % 1008,5 hPa 0,0 l/m 1,3 km/h (1 Bft) NO 9,4 C 10,4 C 2,8 km/h (1 Bft)
31.05.2016 07:00 12,5 C 86 % 1008,8 hPa 0,0 l/m 3,4 km/h (1 Bft) NO 10,2 C 12,5 C 6,0 km/h (2 Bft)
31.05.2016 08:00 13,6 C 79 % 1009,2 hPa 0,0 l/m 3,9 km/h (1 Bft) O 10,1 C 13,6 C 6,9 km/h (2 Bft)
31.05.2016 09:00 15,3 C 67 % 1009,6 hPa 0,0 l/m 6,7 km/h (2 Bft) O-NO 9,3 C 14,8 C 12,3 km/h (2 Bft)
31.05.2016 10:00 14,8 C 69 % 1010,1 hPa 0,0 l/m 4,3 km/h (1 Bft) O-NO 9,2 C 14,7 C 7,7 km/h (2 Bft)
31.05.2016 11:00 15,1 C 69 % 1010,5 hPa 0,0 l/m 4,5 km/h (1 Bft) O-NO 9,4 C 15,0 C 8,0 km/h (2 Bft)
31.05.2016 12:00 16,0 C 66 % 1010,7 hPa 0,0 l/m 4,9 km/h (1 Bft) O-NO 9,6 C 15,9 C 8,6 km/h (2 Bft)
31.05.2016 13:00 17,5 C 61 % 1010,7 hPa 0,0 l/m 5,8 km/h (2 Bft) O-NO 9,9 C 17,3 C 10,3 km/h (2 Bft)
31.05.2016 14:00 17,7 C 61 % 1010,7 hPa 0,0 l/m 6,5 km/h (2 Bft) O-NO 10,1 C 17,3 C 12,6 km/h (3 Bft)
31.05.2016 15:00 18,2 C 60 % 1010,7 hPa 0,0 l/m 6,3 km/h (2 Bft) O-NO 10,2 C 17,8 C 11,3 km/h (2 Bft)
31.05.2016 16:00 18,6 C 58 % 1010,7 hPa 0,0 l/m 5,6 km/h (2 Bft) O-NO 10,1 C 18,3 C 9,9 km/h (2 Bft)
31.05.2016 17:00 17,8 C 61 % 1010,8 hPa 0,0 l/m 4,5 km/h (1 Bft) O-NO 10,3 C 17,8 C 7,9 km/h (2 Bft)
31.05.2016 18:00 18,0 C 61 % 1010,8 hPa 0,0 l/m 3,5 km/h (1 Bft) O-NO 10,4 C 18,0 C 7,6 km/h (2 Bft)
31.05.2016 19:00 16,4 C 65 % 1011,1 hPa 0,0 l/m 2,6 km/h (1 Bft) O 9,9 C 16,4 C 6,4 km/h (2 Bft)
31.05.2016 20:00 15,8 C 67 % 1011,8 hPa 0,0 l/m 1,7 km/h (1 Bft) O 9,6 C 15,8 C 4,3 km/h (1 Bft)
31.05.2016 21:00 15,2 C 70 % 1012,3 hPa 0,0 l/m 1,0 km/h (0 Bft) O 9,8 C 15,2 C 3,3 km/h (1 Bft)
31.05.2016 22:00 13,8 C 78 % 1012,8 hPa 0,0 l/m 0,4 km/h (0 Bft) O-NO 10,0 C 13,8 C 2,0 km/h (1 Bft)
31.05.2016 23:00 12,9 C 82 % 1013,2 hPa 0,0 l/m 0,2 km/h (0 Bft) O-NO 9,9 C 12,9 C 0,9 km/h (0 Bft)
01.06.2016 00:00 12,3 C 86 % 1013,3 hPa 0,0 l/m 0,2 km/h (0 Bft) O-NO 10,0 C 12,3 C 0,8 km/h (0 Bft)
01.06.2016 01:00 11,6 C 88 % 1013,6 hPa 0,0 l/m 0,1 km/h (0 Bft) O-NO 9,7 C 11,6 C 0,5 km/h (0 Bft)
01.06.2016 02:00 9,9 C 90 % 1013,5 hPa 0,0 l/m 0,1 km/h (0 Bft) O-NO 8,4 C 9,9 C 0,5 km/h (0 Bft)
01.06.2016 03:00 9,0 C 92 % 1013,6 hPa 0,0 l/m 0,1 km/h (0 Bft) O-NO 7,8 C 9,0 C 0,9 km/h (0 Bft)
01.06.2016 04:00 8,1 C 94 % 1013,4 hPa 0,0 l/m 0,1 km/h (0 Bft) O-NO 7,2 C 8,1 C 0,5 km/h (0 Bft)
01.06.2016 05:00 7,5 C 95 % 1013,4 hPa 0,0 l/m 0,0 km/h (0 Bft) O-NO 6,7 C 7,5 C 0,3 km/h (0 Bft)
01.06.2016 06:00 7,3 C 95 % 1013,6 hPa 0,0 l/m 0,1 km/h (0 Bft) O-NO 6,6 C 7,3 C 0,5 km/h (0 Bft)
01.06.2016 07:00 10,7 C 91 % 1013,9 hPa 0,0 l/m 0,4 km/h (0 Bft) O-NO 9,3 C 10,7 C 1,7 km/h (1 Bft)
01.06.2016 08:00 14,1 C 78 % 1013,8 hPa 0,0 l/m 3,3 km/h (1 Bft) O-NO 10,3 C 14,1 C 6,1 km/h (2 Bft)
01.06.2016 09:00 14,8 C 75 % 1013,6 hPa 0,0 l/m 3,9 km/h (1 Bft) O 10,4 C 14,8 C 8,5 km/h (2 Bft)
01.06.2016 10:00 17,2 C 63 % 1013,3 hPa 0,0 l/m 4,3 km/h (1 Bft) O 10,1 C 17,2 C 12,0 km/h (2 Bft)
01.06.2016 11:00 18,4 C 59 % 1013,1 hPa 0,0 l/m 4,8 km/h (1 Bft) O-NO 10,3 C 18,4 C 11,7 km/h (2 Bft)
01.06.2016 12:00 19,0 C 57 % 1013,0 hPa 0,0 l/m 5,1 km/h (1 Bft) O-NO 10,2 C 19,0 C 10,3 km/h (2 Bft)
01.06.2016 13:00 19,3 C 56 % 1012,8 hPa 0,0 l/m 3,9 km/h (1 Bft) O-NO 10,4 C 19,3 C 10,5 km/h (2 Bft)
01.06.2016 14:00 19,3 C 57 % 1012,7 hPa 0,0 l/m 4,2 km/h (1 Bft) O-NO 10,5 C 19,3 C 10,1 km/h (2 Bft)
01.06.2016 15:00 18,7 C 58 % 1012,3 hPa 0,0 l/m 4,1 km/h (1 Bft) O-NO 10,2 C 18,7 C 9,2 km/h (2 Bft)
01.06.2016 16:00 18,5 C 60 % 1012,0 hPa 0,0 l/m 3,2 km/h (1 Bft) NO 10,6 C 18,5 C 9,1 km/h (2 Bft)
01.06.2016 17:00 18,6 C 61 % 1012,0 hPa 0,0 l/m 3,8 km/h (1 Bft) O 11,0 C 18,6 C 10,0 km/h (2 Bft)
01.06.2016 18:00 18,2 C 63 % 1011,8 hPa 0,0 l/m 3,1 km/h (1 Bft) O-NO 11,1 C 18,2 C 7,5 km/h (2 Bft)
01.06.2016 19:00 16,9 C 69 % 1011,7 hPa 0,0 l/m 2,8 km/h (1 Bft) O-NO 11,2 C 16,9 C 7,8 km/h (2 Bft)
01.06.2016 20:00 15,8 C 74 % 1011,7 hPa 0,0 l/m 1,4 km/h (1 Bft) O 11,1 C 15,8 C 4,5 km/h (1 Bft)
01.06.2016 21:00 15,2 C 77 % 1011,8 hPa 0,0 l/m 1,0 km/h (0 Bft) O 11,2 C 15,2 C 2,8 km/h (1 Bft)
01.06.2016 22:00 14,0 C 87 % 1011,9 hPa 0,5 l/m 0,3 km/h (0 Bft) S 11,9 C 14,0 C 1,3 km/h (1 Bft)
01.06.2016 23:00 13,2 C 92 % 1011,5 hPa 0,0 l/m 1,3 km/h (1 Bft) O 11,9 C 13,2 C 3,1 km/h (1 Bft)
02.06.2016 00:00 12,9 C 93 % 1011,2 hPa 0,0 l/m 1,5 km/h (1 Bft) O 11,8 C 12,9 C 3,1 km/h (1 Bft)
02.06.2016 01:00 12,8 C 94 % 1010,7 hPa 0,8 l/m 1,2 km/h (1 Bft) O 11,8 C 12,8 C 3,6 km/h (1 Bft)
02.06.2016 02:00 12,5 C 95 % 1010,3 hPa 2,8 l/m 2,4 km/h (1 Bft) O 11,8 C 12,5 C 5,3 km/h (1 Bft)
02.06.2016 03:00 12,4 C 96 % 1010,0 hPa 2,3 l/m 2,6 km/h (1 Bft) O 11,8 C 12,4 C 5,6 km/h (2 Bft)
02.06.2016 04:00 12,1 C 96 % 1009,6 hPa 0,5 l/m 2,6 km/h (1 Bft) O-NO 11,4 C 12,1 C 6,0 km/h (2 Bft)
02.06.2016 05:00 11,9 C 95 % 1009,3 hPa 0,3 l/m 4,4 km/h (1 Bft) O-NO 11,1 C 11,9 C 8,7 km/h (2 Bft)
02.06.2016 06:00 11,8 C 95 % 1009,2 hPa 0,0 l/m 3,5 km/h (1 Bft) O-NO 11,0 C 11,8 C 6,8 km/h (2 Bft)
02.06.2016 07:00 11,9 C 94 % 1009,2 hPa 0,0 l/m 3,2 km/h (1 Bft) O-NO 11,0 C 11,9 C 7,9 km/h (2 Bft)
02.06.2016 08:00 12,8 C 92 % 1009,4 hPa 0,0 l/m 4,7 km/h (1 Bft) O-NO 11,4 C 12,7 C 10,6 km/h (2 Bft)
02.06.2016 09:00 12,6 C 90 % 1009,7 hPa 0,0 l/m 4,1 km/h (1 Bft) O-NO 11,0 C 12,7 C 9,0 km/h (2 Bft)
02.06.2016 10:00 12,8 C 88 % 1009,9 hPa 0,0 l/m 2,8 km/h (1 Bft) O 10,8 C 12,8 C 6,7 km/h (2 Bft)
02.06.2016 11:00 13,6 C 86 % 1010,0 hPa 0,0 l/m 2,2 km/h (1 Bft) O 11,3 C 13,6 C 5,2 km/h (1 Bft)
02.06.2016 12:00 15,0 C 80 % 1009,8 hPa 0,0 l/m 3,1 km/h (1 Bft) O 11,6 C 15,0 C 7,6 km/h (2 Bft)
02.06.2016 13:00 16,1 C 75 % 1009,8 hPa 0,0 l/m 3,3 km/h (1 Bft) O-NO 11,5 C 16,1 C 7,9 km/h (2 Bft)
02.06.2016 14:00 16,2 C 72 % 1009,8 hPa 0,0 l/m 4,2 km/h (1 Bft) O-NO 11,2 C 16,2 C 10,0 km/h (2 Bft)
02.06.2016 15:00 16,3 C 72 % 1009,7 hPa 0,0 l/m 3,4 km/h (1 Bft) O 11,2 C 16,3 C 8,1 km/h (2 Bft)
02.06.2016 16:00 16,4 C 67 % 1009,6 hPa 0,0 l/m 4,0 km/h (1 Bft) O 10,4 C 16,4 C 10,5 km/h (2 Bft)
02.06.2016 17:00 15,9 C 71 % 1009,7 hPa 0,0 l/m 2,3 km/h (1 Bft) O 10,6 C 15,9 C 5,5 km/h (2 Bft)
02.06.2016 18:00 16,0 C 70 % 1009,6 hPa 0,0 l/m 1,7 km/h (1 Bft) O 10,6 C 16,0 C 3,5 km/h (1 Bft)
02.06.2016 19:00 15,8 C 73 % 1009,8 hPa 0,0 l/m 1,2 km/h (1 Bft) O 10,9 C 15,8 C 3,5 km/h (1 Bft)
02.06.2016 20:00 15,1 C 79 % 1009,9 hPa 0,0 l/m 0,5 km/h (0 Bft) O 11,4 C 15,1 C 1,6 km/h (1 Bft)
02.06.2016 21:00 14,4 C 84 % 1010,2 hPa 0,0 l/m 0,0 km/h (0 Bft) O 11,8 C 14,4 C 0,2 km/h (0 Bft)
02.06.2016 22:00 13,3 C 88 % 1010,4 hPa 0,0 l/m 0,1 km/h (0 Bft) O 11,4 C 13,3 C 0,9 km/h (0 Bft)
02.06.2016 23:00 12,8 C 91 % 1010,6 hPa 0,0 l/m 0,0 km/h (0 Bft) O 11,2 C 12,8 C 0,2 km/h (0 Bft)
03.06.2016 00:00 12,6 C 92 % 1010,6 hPa 0,0 l/m 0,0 km/h (0 Bft) O 11,3 C 12,6 C 0,0 km/h (0 Bft)
03.06.2016 01:00 12,5 C 93 % 1010,4 hPa 0,0 l/m 0,0 km/h (0 Bft) O 11,4 C 12,5 C 0,5 km/h (0 Bft)
03.06.2016 02:00 12,4 C 93 % 1010,3 hPa 0,0 l/m 0,1 km/h (0 Bft) O 11,3 C 12,4 C 0,4 km/h (0 Bft)
03.06.2016 03:00 12,4 C 93 % 1010,1 hPa 0,0 l/m 0,0 km/h (0 Bft) O 11,3 C 12,4 C 0,7 km/h (0 Bft)
03.06.2016 04:00 12,1 C 94 % 1009,8 hPa 0,0 l/m 0,0 km/h (0 Bft) O 11,2 C 12,1 C 0,1 km/h (0 Bft)
03.06.2016 05:00 11,8 C 95 % 1009,9 hPa 0,0 l/m 0,0 km/h (0 Bft) O 11,0 C 11,8 C 0,0 km/h (0 Bft)
03.06.2016 06:00 11,9 C 95 % 1010,0 hPa 0,0 l/m 0,0 km/h (0 Bft) O 11,2 C 11,9 C 0,2 km/h (0 Bft)
03.06.2016 07:00 12,8 C 94 % 1010,1 hPa 0,0 l/m 0,2 km/h (0 Bft) O 11,8 C 12,8 C 1,5 km/h (1 Bft)
03.06.2016 08:00 14,9 C 86 % 1010,2 hPa 0,0 l/m 1,2 km/h (1 Bft) SO 12,4 C 14,9 C 3,6 km/h (1 Bft)
03.06.2016 09:00 15,6 C 80 % 1010,2 hPa 0,0 l/m 1,7 km/h (1 Bft) W 12,2 C 15,6 C 4,0 km/h (1 Bft)
03.06.2016 10:00 16,2 C 79 % 1010,1 hPa 0,0 l/m 2,3 km/h (1 Bft) W-NW 12,5 C 16,2 C 5,9 km/h (2 Bft)
03.06.2016 11:00 17,2 C 76 % 1009,9 hPa 0,0 l/m 2,5 km/h (1 Bft) SW 12,9 C 17,2 C 5,6 km/h (2 Bft)
03.06.2016 12:00 18,6 C 70 % 1009,7 hPa 0,0 l/m 3,7 km/h (1 Bft) N-NW 13,0 C 18,6 C 7,7 km/h (2 Bft)
03.06.2016 13:00 18,8 C 70 % 1009,5 hPa 0,0 l/m 3,8 km/h (1 Bft) O-NO 13,2 C 18,8 C 9,1 km/h (2 Bft)
03.06.2016 14:00 18,4 C 72 % 1009,3 hPa 0,0 l/m 3,6 km/h (1 Bft) O-NO 13,2 C 18,4 C 7,9 km/h (2 Bft)
03.06.2016 15:00 17,0 C 78 % 1009,4 hPa 2,0 l/m 2,6 km/h (1 Bft) S 13,0 C 17,0 C 6,7 km/h (2 Bft)
03.06.2016 16:00 15,2 C 91 % 1009,3 hPa 2,0 l/m 1,4 km/h (1 Bft) O 13,7 C 15,2 C 4,1 km/h (1 Bft)
03.06.2016 17:00 16,0 C 88 % 1009,2 hPa 0,0 l/m 1,2 km/h (1 Bft) O 13,9 C 16,0 C 3,3 km/h (1 Bft)
03.06.2016 18:00 15,8 C 89 % 1009,2 hPa 0,0 l/m 2,4 km/h (1 Bft) O 14,0 C 15,8 C 4,6 km/h (1 Bft)
03.06.2016 19:00 15,7 C 90 % 1009,3 hPa 0,0 l/m 1,0 km/h (0 Bft) O-NO 14,0 C 15,7 C 3,6 km/h (1 Bft)
03.06.2016 20:00 14,8 C 91 % 1009,6 hPa 0,0 l/m 0,3 km/h (0 Bft) NO 13,2 C 14,8 C 1,6 km/h (1 Bft)
03.06.2016 21:00 14,0 C 94 % 1009,9 hPa 0,0 l/m 0,6 km/h (0 Bft) NO 13,0 C 14,0 C 1,9 km/h (1 Bft)
03.06.2016 22:00 13,5 C 95 % 1010,3 hPa 0,0 l/m 0,4 km/h (0 Bft) NO 12,8 C 13,5 C 1,7 km/h (1 Bft)
03.06.2016 23:00 13,3 C 96 % 1010,4 hPa 0,0 l/m 0,3 km/h (0 Bft) NO 12,7 C 13,3 C 1,3 km/h (1 Bft)
04.06.2016 00:00 13,4 C 96 % 1010,4 hPa 0,3 l/m 0,3 km/h (0 Bft) NO 12,8 C 13,4 C 1,5 km/h (1 Bft)
04.06.2016 01:00 13,2 C 96 % 1010,2 hPa 0,3 l/m 0,8 km/h (0 Bft) O-SO 12,7 C 13,2 C 3,2 km/h (1 Bft)
04.06.2016 02:00 13,1 C 97 % 1010,3 hPa 0,0 l/m 1,2 km/h (1 Bft) O 12,6 C 13,1 C 3,4 km/h (1 Bft)
04.06.2016 03:00 12,9 C 96 % 1010,1 hPa 0,3 l/m 1,1 km/h (0 Bft) O 12,3 C 12,9 C 2,7 km/h (1 Bft)
04.06.2016 04:00 12,8 C 97 % 1009,9 hPa 0,0 l/m 1,0 km/h (0 Bft) O-NO 12,3 C 12,8 C 3,5 km/h (1 Bft)
04.06.2016 05:00 12,8 C 97 % 1010,0 hPa 0,0 l/m 0,5 km/h (0 Bft) O-NO 12,3 C 12,8 C 1,6 km/h (1 Bft)
04.06.2016 06:00 12,9 C 97 % 1010,2 hPa 0,0 l/m 0,9 km/h (0 Bft) O-NO 12,5 C 12,9 C 2,6 km/h (1 Bft)
04.06.2016 07:00 13,2 C 96 % 1010,4 hPa 0,3 l/m 1,6 km/h (1 Bft) O 12,7 C 13,2 C 4,7 km/h (1 Bft)
04.06.2016 08:00 13,4 C 96 % 1010,7 hPa 4,6 l/m 1,6 km/h (1 Bft) O-NO 12,7 C 13,4 C 3,5 km/h (1 Bft)
04.06.2016 09:00 13,4 C 96 % 1010,9 hPa 1,0 l/m 2,3 km/h (1 Bft) O-NO 12,8 C 13,4 C 4,3 km/h (1 Bft)
04.06.2016 10:00 13,8 C 95 % 1011,2 hPa 0,3 l/m 2,8 km/h (1 Bft) O-NO 13,0 C 13,8 C 7,1 km/h (2 Bft)
04.06.2016 11:00 14,8 C 91 % 1011,5 hPa 0,0 l/m 3,2 km/h (1 Bft) NO 13,3 C 14,8 C 7,2 km/h (2 Bft)
04.06.2016 12:00 15,3 C 89 % 1011,6 hPa 0,0 l/m 3,5 km/h (1 Bft) O-NO 13,5 C 15,3 C 7,6 km/h (2 Bft)
04.06.2016 13:00 16,9 C 82 % 1011,5 hPa 0,0 l/m 3,7 km/h (1 Bft) O-NO 13,7 C 16,9 C 8,4 km/h (2 Bft)
04.06.2016 14:00 16,7 C 81 % 1011,5 hPa 0,0 l/m 4,6 km/h (1 Bft) N-NO 13,5 C 16,7 C 9,8 km/h (2 Bft)
04.06.2016 15:00 16,9 C 81 % 1011,4 hPa 0,0 l/m 4,4 km/h (1 Bft) O-NO 13,5 C 16,9 C 9,0 km/h (2 Bft)
04.06.2016 16:00 19,3 C 71 % 1011,2 hPa 0,0 l/m 3,0 km/h (1 Bft) O-NO 13,9 C 19,3 C 7,8 km/h (2 Bft)
04.06.2016 17:00 17,7 C 77 % 1011,1 hPa 0,0 l/m 1,5 km/h (1 Bft) NO 13,7 C 17,7 C 4,5 km/h (1 Bft)
04.06.2016 18:00 16,9 C 82 % 1011,2 hPa 0,0 l/m 1,2 km/h (1 Bft) S 13,8 C 16,9 C 3,8 km/h (1 Bft)
04.06.2016 19:00 16,1 C 86 % 1011,7 hPa 0,0 l/m 1,4 km/h (1 Bft) O 13,7 C 16,1 C 4,1 km/h (1 Bft)
04.06.2016 20:00 14,9 C 93 % 1012,4 hPa 4,8 l/m 1,2 km/h (1 Bft) O 13,7 C 14,9 C 2,9 km/h (1 Bft)
04.06.2016 21:00 14,4 C 95 % 1012,9 hPa 1,0 l/m 0,2 km/h (0 Bft) O 13,6 C 14,4 C 0,9 km/h (0 Bft)
04.06.2016 22:00 13,6 C 95 % 1013,7 hPa 0,5 l/m 0,3 km/h (0 Bft) O 12,9 C 13,6 C 1,2 km/h (1 Bft)
04.06.2016 23:00 13,1 C 97 % 1014,2 hPa 0,0 l/m 0,3 km/h (0 Bft) O 12,5 C 13,1 C 1,4 km/h (1 Bft)
05.06.2016 00:00 13,1 C 97 % 1014,4 hPa 0,0 l/m 0,0 km/h (0 Bft) O 12,6 C 13,1 C 0,6 km/h (0 Bft)
05.06.2016 01:00 13,2 C 97 % 1014,3 hPa 0,3 l/m 0,1 km/h (0 Bft) O 12,8 C 13,2 C 0,8 km/h (0 Bft)
05.06.2016 02:00 13,0 C 97 % 1014,3 hPa 0,0 l/m 0,0 km/h (0 Bft) O 12,5 C 13,0 C 0,4 km/h (0 Bft)
05.06.2016 03:00 12,9 C 97 % 1014,3 hPa 0,0 l/m 0,4 km/h (0 Bft) O 12,4 C 12,9 C 1,3 km/h (1 Bft)
05.06.2016 04:00 12,8 C 97 % 1014,3 hPa 0,0 l/m 0,1 km/h (0 Bft) O 12,4 C 12,8 C 1,1 km/h (0 Bft)
05.06.2016 05:00 12,5 C 97 % 1014,5 hPa 0,0 l/m 0,2 km/h (0 Bft) O 12,0 C 12,5 C 1,1 km/h (1 Bft)
05.06.2016 06:00 12,6 C 98 % 1014,6 hPa 0,0 l/m 1,0 km/h (0 Bft) O 12,3 C 12,6 C 2,7 km/h (1 Bft)
05.06.2016 07:00 13,1 C 98 % 1015,1 hPa 0,0 l/m 1,5 km/h (1 Bft) O 12,7 C 13,1 C 3,5 km/h (1 Bft)
05.06.2016 08:00 13,7 C 97 % 1015,5 hPa 0,0 l/m 1,5 km/h (1 Bft) O 13,2 C 13,7 C 3,6 km/h (1 Bft)
05.06.2016 09:00 14,3 C 96 % 1015,8 hPa 0,3 l/m 0,2 km/h (0 Bft) O-NO 13,6 C 14,3 C 1,4 km/h (1 Bft)
05.06.2016 10:00 14,6 C 96 % 1016,1 hPa 1,0 l/m 0,6 km/h (0 Bft) O 13,9 C 14,6 C 2,3 km/h (1 Bft)
05.06.2016 11:00 16,1 C 92 % 1016,2 hPa 0,5 l/m 0,9 km/h (0 Bft) O-SO 14,7 C 16,1 C 2,6 km/h (1 Bft)
05.06.2016 12:00 16,4 C 91 % 1016,4 hPa 5,1 l/m 1,0 km/h (0 Bft) SO 14,9 C 16,4 C 2,9 km/h (1 Bft)
05.06.2016 13:00 16,0 C 92 % 1016,5 hPa 0,8 l/m 1,0 km/h (0 Bft) S-SO 14,7 C 16,0 C 3,3 km/h (1 Bft)
05.06.2016 14:00 16,7 C 91 % 1016,2 hPa 0,3 l/m 0,9 km/h (0 Bft) N-NO 15,2 C 16,7 C 2,7 km/h (1 Bft)
05.06.2016 15:00 17,6 C 86 % 1016,0 hPa 0,0 l/m 1,1 km/h (0 Bft) N-NO 15,2 C 17,6 C 2,4 km/h (1 Bft)
05.06.2016 16:00 19,6 C 75 % 1015,7 hPa 0,0 l/m 2,1 km/h (1 Bft) S-SW 15,0 C 19,6 C 5,3 km/h (1 Bft)
05.06.2016 17:00 18,7 C 84 % 1015,5 hPa 0,8 l/m 1,1 km/h (1 Bft) SO 15,9 C 18,7 C 3,1 km/h (1 Bft)
05.06.2016 18:00 17,8 C 88 % 1015,8 hPa 0,0 l/m 0,7 km/h (0 Bft) W 15,8 C 17,8 C 2,3 km/h (1 Bft)
05.06.2016 19:00 17,4 C 89 % 1015,9 hPa 0,0 l/m 0,6 km/h (0 Bft) S-SW 15,5 C 17,4 C 2,3 km/h (1 Bft)
05.06.2016 20:00 17,1 C 91 % 1016,3 hPa 0,0 l/m 0,2 km/h (0 Bft) S-SW 15,6 C 17,1 C 1,2 km/h (1 Bft)
05.06.2016 21:00 16,3 C 94 % 1016,9 hPa 0,0 l/m 0,1 km/h (0 Bft) S-SW 15,3 C 16,3 C 0,5 km/h (0 Bft)
05.06.2016 22:00 15,5 C 95 % 1017,5 hPa 0,0 l/m 0,1 km/h (0 Bft) S-SW 14,8 C 15,5 C 0,8 km/h (0 Bft)
05.06.2016 23:00 15,2 C 97 % 1017,6 hPa 0,0 l/m 0,5 km/h (0 Bft) S-SO 14,6 C 15,2 C 1,8 km/h (1 Bft)
Min-Datum _ 01.06.16 01.06.16 30.05.16 - 05.06.16 - 01.06.16 01.06.16 05.06.16
_ Min-Zeit 06:05 13:10 08:00 - 23:00 - 06:02 06:05 23:00
Minimum _ 7,1 C 54 % 1003,7 hPa - 0,0 km/h (0 Bft) - 6,3 C 7,1 C 0,0 km/h (0 Bft)
Max-Datum _ 05.06.16 05.06.16 05.06.16 05.06.16 31.05.16 - 05.06.16 05.06.16 30.05.16
_ Max-Zeit 17:00 07:00 23:05 12:30 09:45 - 18:04 17:00 20:05
Maximum _ 20,6 C 98 % 1017,7 hPa 5,1 l/m 14,5 km/h
O-NO (3 Bft)
- 16,3 C 20,6 C 32,2 km/h
O-NO (5 Bft)
Durchschnitt _ 14,3 C 85 % 1010,7 hPa #49,8 l/m 2,4 km/h (1 Bft) O-NO 11,7 C 14,2 C 5,7 km/h (2 Bft)